sensor_id;sensor_type;location;lat;lon;timestamp;P1;durP1;ratioP1;P2;durP2;ratioP2
595;SDS011;19946;49.306;11.350;2023-09-30T00:01:49;0.03;;;0.03;;
595;SDS011;19946;49.306;11.350;2023-09-30T00:04:49;0.10;;;0.10;;
595;SDS011;19946;49.306;11.350;2023-09-30T00:07:49;0.10;;;0.10;;
595;SDS011;19946;49.306;11.350;2023-09-30T00:10:50;0.10;;;0.10;;
595;SDS011;19946;49.306;11.350;2023-09-30T00:13:53;0.10;;;0.10;;
595;SDS011;19946;49.306;11.350;2023-09-30T00:16:53;0.10;;;0.10;;
595;SDS011;19946;49.306;11.350;2023-09-30T00:19:54;0.10;;;0.10;;
595;SDS011;19946;49.306;11.350;2023-09-30T00:22:54;0.20;;;0.20;;
595;SDS011;19946;49.306;11.350;2023-09-30T00:25:54;0.20;;;0.20;;
595;SDS011;19946;49.306;11.350;2023-09-30T00:28:55;0.10;;;0.10;;
595;SDS011;19946;49.306;11.350;2023-09-30T00:31:56;0.20;;;0.20;;
595;SDS011;19946;49.306;11.350;2023-09-30T00:34:56;0.20;;;0.20;;
595;SDS011;19946;49.306;11.350;2023-09-30T00:37:57;0.20;;;0.20;;
595;SDS011;19946;49.306;11.350;2023-09-30T00:40:57;0.30;;;0.30;;
595;SDS011;19946;49.306;11.350;2023-09-30T00:43:57;0.20;;;0.20;;
595;SDS011;19946;49.306;11.350;2023-09-30T00:46:57;0.20;;;0.20;;
595;SDS011;19946;49.306;11.350;2023-09-30T00:49:59;0.30;;;0.30;;
595;SDS011;19946;49.306;11.350;2023-09-30T00:53:00;0.30;;;0.30;;
595;SDS011;19946;49.306;11.350;2023-09-30T00:56:00;0.20;;;0.20;;
595;SDS011;19946;49.306;11.350;2023-09-30T00:59:01;0.10;;;0.10;;
595;SDS011;19946;49.306;11.350;2023-09-30T01:02:01;0.17;;;0.17;;
595;SDS011;19946;49.306;11.350;2023-09-30T01:05:05;0.20;;;0.20;;
595;SDS011;19946;49.306;11.350;2023-09-30T01:08:07;0.20;;;0.20;;
595;SDS011;19946;49.306;11.350;2023-09-30T01:11:08;0.20;;;0.20;;
595;SDS011;19946;49.306;11.350;2023-09-30T01:14:23;0.20;;;0.20;;
595;SDS011;19946;49.306;11.350;2023-09-30T01:17:29;0.20;;;0.20;;
595;SDS011;19946;49.306;11.350;2023-09-30T01:20:29;0.20;;;0.20;;
595;SDS011;19946;49.306;11.350;2023-09-30T01:23:33;0.20;;;0.20;;
595;SDS011;19946;49.306;11.350;2023-09-30T01:26:35;0.10;;;0.10;;
595;SDS011;19946;49.306;11.350;2023-09-30T01:29:35;0.20;;;0.20;;
595;SDS011;19946;49.306;11.350;2023-09-30T01:32:38;0.20;;;0.20;;
595;SDS011;19946;49.306;11.350;2023-09-30T01:35:38;0.20;;;0.20;;
595;SDS011;19946;49.306;11.350;2023-09-30T01:38:39;0.30;;;0.30;;
595;SDS011;19946;49.306;11.350;2023-09-30T01:41:40;0.10;;;0.10;;
595;SDS011;19946;49.306;11.350;2023-09-30T01:44:41;0.20;;;0.20;;
595;SDS011;19946;49.306;11.350;2023-09-30T01:47:41;0.20;;;0.20;;
595;SDS011;19946;49.306;11.350;2023-09-30T01:50:41;0.20;;;0.20;;
595;SDS011;19946;49.306;11.350;2023-09-30T01:53:42;0.20;;;0.20;;
595;SDS011;19946;49.306;11.350;2023-09-30T01:56:43;0.30;;;0.30;;
595;SDS011;19946;49.306;11.350;2023-09-30T01:59:43;0.30;;;0.30;;
595;SDS011;19946;49.306;11.350;2023-09-30T02:02:43;0.30;;;0.30;;
595;SDS011;19946;49.306;11.350;2023-09-30T02:05:44;0.30;;;0.30;;
595;SDS011;19946;49.306;11.350;2023-09-30T02:08:44;0.30;;;0.30;;
595;SDS011;19946;49.306;11.350;2023-09-30T02:11:46;0.30;;;0.30;;
595;SDS011;19946;49.306;11.350;2023-09-30T02:14:46;0.20;;;0.20;;
595;SDS011;19946;49.306;11.350;2023-09-30T02:17:47;0.23;;;0.23;;
595;SDS011;19946;49.306;11.350;2023-09-30T02:20:48;0.27;;;0.27;;
595;SDS011;19946;49.306;11.350;2023-09-30T02:23:50;0.30;;;0.30;;
595;SDS011;19946;49.306;11.350;2023-09-30T02:26:54;0.30;;;0.30;;
595;SDS011;19946;49.306;11.350;2023-09-30T02:29:56;0.20;;;0.20;;
595;SDS011;19946;49.306;11.350;2023-09-30T02:32:56;0.20;;;0.20;;
595;SDS011;19946;49.306;11.350;2023-09-30T02:35:57;0.30;;;0.30;;
595;SDS011;19946;49.306;11.350;2023-09-30T02:38:57;0.20;;;0.20;;
595;SDS011;19946;49.306;11.350;2023-09-30T02:41:58;0.10;;;0.10;;
595;SDS011;19946;49.306;11.350;2023-09-30T02:45:01;0.17;;;0.17;;
595;SDS011;19946;49.306;11.350;2023-09-30T02:48:02;0.20;;;0.20;;
595;SDS011;19946;49.306;11.350;2023-09-30T02:51:03;0.13;;;0.13;;
595;SDS011;19946;49.306;11.350;2023-09-30T02:54:04;0.20;;;0.20;;
595;SDS011;19946;49.306;11.350;2023-09-30T02:57:04;0.30;;;0.30;;
595;SDS011;19946;49.306;11.350;2023-09-30T03:00:05;0.20;;;0.20;;
595;SDS011;19946;49.306;11.350;2023-09-30T03:03:26;0.20;;;0.20;;
595;SDS011;19946;49.306;11.350;2023-09-30T03:06:26;0.20;;;0.20;;
595;SDS011;19946;49.306;11.350;2023-09-30T03:09:26;0.10;;;0.10;;
595;SDS011;19946;49.306;11.350;2023-09-30T03:12:26;0.10;;;0.10;;
595;SDS011;19946;49.306;11.350;2023-09-30T03:15:27;0.10;;;0.10;;
595;SDS011;19946;49.306;11.350;2023-09-30T03:18:28;0.00;;;0.00;;
595;SDS011;19946;49.306;11.350;2023-09-30T03:21:31;0.10;;;0.10;;
595;SDS011;19946;49.306;11.350;2023-09-30T03:24:31;0.10;;;0.10;;
595;SDS011;19946;49.306;11.350;2023-09-30T03:27:32;0.10;;;0.10;;
595;SDS011;19946;49.306;11.350;2023-09-30T03:30:33;0.10;;;0.10;;
595;SDS011;19946;49.306;11.350;2023-09-30T03:33:34;0.10;;;0.10;;
595;SDS011;19946;49.306;11.350;2023-09-30T03:36:35;0.10;;;0.10;;
595;SDS011;19946;49.306;11.350;2023-09-30T03:39:35;0.00;;;0.00;;
595;SDS011;19946;49.306;11.350;2023-09-30T03:42:36;0.00;;;0.00;;
595;SDS011;19946;49.306;11.350;2023-09-30T03:45:36;0.00;;;0.00;;
595;SDS011;19946;49.306;11.350;2023-09-30T03:48:39;0.00;;;0.00;;
595;SDS011;19946;49.306;11.350;2023-09-30T03:51:40;0.10;;;0.10;;
595;SDS011;19946;49.306;11.350;2023-09-30T03:54:41;0.10;;;0.10;;
595;SDS011;19946;49.306;11.350;2023-09-30T03:57:41;0.00;;;0.00;;
595;SDS011;19946;49.306;11.350;2023-09-30T04:00:42;0.00;;;0.00;;
595;SDS011;19946;49.306;11.350;2023-09-30T04:03:42;0.10;;;0.10;;
595;SDS011;19946;49.306;11.350;2023-09-30T04:06:43;0.00;;;0.00;;
595;SDS011;19946;49.306;11.350;2023-09-30T04:09:43;0.00;;;0.00;;
595;SDS011;19946;49.306;11.350;2023-09-30T04:12:44;0.00;;;0.00;;
595;SDS011;19946;49.306;11.350;2023-09-30T04:15:44;0.00;;;0.00;;
595;SDS011;19946;49.306;11.350;2023-09-30T04:18:45;0.00;;;0.00;;
595;SDS011;19946;49.306;11.350;2023-09-30T04:21:46;0.00;;;0.00;;
595;SDS011;19946;49.306;11.350;2023-09-30T04:24:46;0.00;;;0.00;;
595;SDS011;19946;49.306;11.350;2023-09-30T04:27:49;0.00;;;0.00;;
595;SDS011;19946;49.306;11.350;2023-09-30T04:30:49;0.00;;;0.00;;
595;SDS011;19946;49.306;11.350;2023-09-30T04:33:50;0.00;;;0.00;;
595;SDS011;19946;49.306;11.350;2023-09-30T04:36:51;0.00;;;0.00;;
595;SDS011;19946;49.306;11.350;2023-09-30T04:39:52;0.00;;;0.00;;
595;SDS011;19946;49.306;11.350;2023-09-30T04:42:53;0.00;;;0.00;;
595;SDS011;19946;49.306;11.350;2023-09-30T04:45:58;0.00;;;0.00;;
595;SDS011;19946;49.306;11.350;2023-09-30T04:48:59;0.00;;;0.00;;
595;SDS011;19946;49.306;11.350;2023-09-30T04:51:59;0.00;;;0.00;;
595;SDS011;19946;49.306;11.350;2023-09-30T04:55:00;0.00;;;0.00;;
595;SDS011;19946;49.306;11.350;2023-09-30T04:58:01;0.00;;;0.00;;
595;SDS011;19946;49.306;11.350;2023-09-30T05:01:01;0.00;;;0.00;;
595;SDS011;19946;49.306;11.350;2023-09-30T05:04:02;0.00;;;0.00;;
595;SDS011;19946;49.306;11.350;2023-09-30T05:07:02;0.00;;;0.00;;
595;SDS011;19946;49.306;11.350;2023-09-30T05:10:03;0.00;;;0.00;;
595;SDS011;19946;49.306;11.350;2023-09-30T05:13:10;0.00;;;0.00;;
595;SDS011;19946;49.306;11.350;2023-09-30T05:16:11;0.00;;;0.00;;
595;SDS011;19946;49.306;11.350;2023-09-30T05:19:13;0.00;;;0.00;;
595;SDS011;19946;49.306;11.350;2023-09-30T05:22:13;0.00;;;0.00;;
595;SDS011;19946;49.306;11.350;2023-09-30T05:25:14;0.00;;;0.00;;
595;SDS011;19946;49.306;11.350;2023-09-30T05:28:19;0.00;;;0.00;;
595;SDS011;19946;49.306;11.350;2023-09-30T05:31:20;0.00;;;0.00;;
595;SDS011;19946;49.306;11.350;2023-09-30T05:34:21;0.00;;;0.00;;
595;SDS011;19946;49.306;11.350;2023-09-30T05:37:21;0.00;;;0.00;;
595;SDS011;19946;49.306;11.350;2023-09-30T05:40:22;0.00;;;0.00;;
595;SDS011;19946;49.306;11.350;2023-09-30T05:43:24;0.00;;;0.00;;
595;SDS011;19946;49.306;11.350;2023-09-30T05:46:25;0.00;;;0.00;;
595;SDS011;19946;49.306;11.350;2023-09-30T05:49:27;0.00;;;0.00;;
595;SDS011;19946;49.306;11.350;2023-09-30T05:52:27;0.00;;;0.00;;
595;SDS011;19946;49.306;11.350;2023-09-30T05:55:28;0.00;;;0.00;;
595;SDS011;19946;49.306;11.350;2023-09-30T05:58:29;0.00;;;0.00;;
595;SDS011;19946;49.306;11.350;2023-09-30T06:01:29;0.00;;;0.00;;
595;SDS011;19946;49.306;11.350;2023-09-30T06:04:29;0.00;;;0.00;;
595;SDS011;19946;49.306;11.350;2023-09-30T06:07:30;0.00;;;0.00;;
595;SDS011;19946;49.306;11.350;2023-09-30T06:10:30;0.00;;;0.00;;
595;SDS011;19946;49.306;11.350;2023-09-30T06:13:32;0.00;;;0.00;;
595;SDS011;19946;49.306;11.350;2023-09-30T06:16:33;0.00;;;0.00;;
595;SDS011;19946;49.306;11.350;2023-09-30T06:19:34;0.00;;;0.00;;
595;SDS011;19946;49.306;11.350;2023-09-30T06:22:35;0.00;;;0.00;;
595;SDS011;19946;49.306;11.350;2023-09-30T06:25:35;0.00;;;0.00;;
595;SDS011;19946;49.306;11.350;2023-09-30T06:28:36;0.00;;;0.00;;
595;SDS011;19946;49.306;11.350;2023-09-30T06:31:40;0.00;;;0.00;;
595;SDS011;19946;49.306;11.350;2023-09-30T06:34:41;0.00;;;0.00;;
595;SDS011;19946;49.306;11.350;2023-09-30T06:37:41;0.00;;;0.00;;
595;SDS011;19946;49.306;11.350;2023-09-30T06:40:42;0.00;;;0.00;;
595;SDS011;19946;49.306;11.350;2023-09-30T06:43:43;0.00;;;0.00;;
595;SDS011;19946;49.306;11.350;2023-09-30T06:46:44;0.00;;;0.00;;
595;SDS011;19946;49.306;11.350;2023-09-30T06:49:44;0.00;;;0.00;;
595;SDS011;19946;49.306;11.350;2023-09-30T06:52:46;0.00;;;0.00;;
595;SDS011;19946;49.306;11.350;2023-09-30T06:55:49;0.00;;;0.00;;
595;SDS011;19946;49.306;11.350;2023-09-30T06:58:51;0.00;;;0.00;;
595;SDS011;19946;49.306;11.350;2023-09-30T07:01:51;0.00;;;0.00;;
595;SDS011;19946;49.306;11.350;2023-09-30T07:04:52;0.00;;;0.00;;
595;SDS011;19946;49.306;11.350;2023-09-30T07:07:53;0.00;;;0.00;;
595;SDS011;19946;49.306;11.350;2023-09-30T07:10:53;0.00;;;0.00;;
595;SDS011;19946;49.306;11.350;2023-09-30T07:13:53;0.00;;;0.00;;
595;SDS011;19946;49.306;11.350;2023-09-30T07:16:54;0.00;;;0.00;;
595;SDS011;19946;49.306;11.350;2023-09-30T07:19:54;0.00;;;0.00;;
595;SDS011;19946;49.306;11.350;2023-09-30T07:22:54;0.00;;;0.00;;
595;SDS011;19946;49.306;11.350;2023-09-30T07:25:55;0.00;;;0.00;;
595;SDS011;19946;49.306;11.350;2023-09-30T07:28:55;0.00;;;0.00;;
595;SDS011;19946;49.306;11.350;2023-09-30T07:31:56;0.00;;;0.00;;
595;SDS011;19946;49.306;11.350;2023-09-30T07:34:57;0.00;;;0.00;;
595;SDS011;19946;49.306;11.350;2023-09-30T07:37:57;0.00;;;0.00;;
595;SDS011;19946;49.306;11.350;2023-09-30T07:40:59;0.10;;;0.10;;
595;SDS011;19946;49.306;11.350;2023-09-30T07:44:00;0.10;;;0.10;;
595;SDS011;19946;49.306;11.350;2023-09-30T07:47:00;0.10;;;0.10;;
595;SDS011;19946;49.306;11.350;2023-09-30T07:50:01;0.10;;;0.10;;
595;SDS011;19946;49.306;11.350;2023-09-30T07:53:06;0.10;;;0.10;;
595;SDS011;19946;49.306;11.350;2023-09-30T07:56:06;0.20;;;0.20;;
595;SDS011;19946;49.306;11.350;2023-09-30T07:59:07;0.13;;;0.13;;
595;SDS011;19946;49.306;11.350;2023-09-30T08:02:07;0.20;;;0.20;;
595;SDS011;19946;49.306;11.350;2023-09-30T08:05:08;0.30;;;0.30;;
595;SDS011;19946;49.306;11.350;2023-09-30T08:08:10;0.40;;;0.40;;
595;SDS011;19946;49.306;11.350;2023-09-30T08:11:11;0.33;;;0.33;;
595;SDS011;19946;49.306;11.350;2023-09-30T08:14:12;0.40;;;0.40;;
595;SDS011;19946;49.306;11.350;2023-09-30T08:17:12;0.60;;;0.60;;
595;SDS011;19946;49.306;11.350;2023-09-30T08:20:13;0.60;;;0.60;;
595;SDS011;19946;49.306;11.350;2023-09-30T08:23:13;0.80;;;0.80;;
595;SDS011;19946;49.306;11.350;2023-09-30T08:26:14;0.60;;;0.60;;
595;SDS011;19946;49.306;11.350;2023-09-30T08:29:14;0.50;;;0.50;;
595;SDS011;19946;49.306;11.350;2023-09-30T08:32:14;0.50;;;0.50;;
595;SDS011;19946;49.306;11.350;2023-09-30T08:35:15;0.60;;;0.60;;
595;SDS011;19946;49.306;11.350;2023-09-30T08:38:15;0.40;;;0.40;;
595;SDS011;19946;49.306;11.350;2023-09-30T08:41:31;0.40;;;0.40;;
595;SDS011;19946;49.306;11.350;2023-09-30T08:44:33;0.30;;;0.30;;
595;SDS011;19946;49.306;11.350;2023-09-30T08:47:33;0.40;;;0.40;;
595;SDS011;19946;49.306;11.350;2023-09-30T08:50:35;0.30;;;0.30;;
595;SDS011;19946;49.306;11.350;2023-09-30T08:53:39;0.30;;;0.30;;
595;SDS011;19946;49.306;11.350;2023-09-30T08:56:40;0.40;;;0.40;;
595;SDS011;19946;49.306;11.350;2023-09-30T08:59:43;0.53;;;0.53;;
595;SDS011;19946;49.306;11.350;2023-09-30T09:02:44;0.57;;;0.57;;
595;SDS011;19946;49.306;11.350;2023-09-30T09:05:44;0.80;;;0.80;;
595;SDS011;19946;49.306;11.350;2023-09-30T09:08:44;0.70;;;0.70;;
595;SDS011;19946;49.306;11.350;2023-09-30T09:11:45;1.00;;;1.00;;
595;SDS011;19946;49.306;11.350;2023-09-30T09:14:46;0.70;;;0.70;;
595;SDS011;19946;49.306;11.350;2023-09-30T09:17:47;0.70;;;0.70;;
595;SDS011;19946;49.306;11.350;2023-09-30T09:20:47;1.40;;;1.40;;
595;SDS011;19946;49.306;11.350;2023-09-30T09:23:49;1.10;;;1.10;;
595;SDS011;19946;49.306;11.350;2023-09-30T09:26:50;1.10;;;1.10;;
595;SDS011;19946;49.306;11.350;2023-09-30T09:29:50;0.90;;;0.90;;
595;SDS011;19946;49.306;11.350;2023-09-30T09:32:51;1.40;;;1.40;;
595;SDS011;19946;49.306;11.350;2023-09-30T09:35:58;1.20;;;1.20;;
595;SDS011;19946;49.306;11.350;2023-09-30T09:38:58;1.40;;;1.40;;
595;SDS011;19946;49.306;11.350;2023-09-30T09:41:59;1.57;;;1.57;;
595;SDS011;19946;49.306;11.350;2023-09-30T09:45:05;1.70;;;1.70;;
595;SDS011;19946;49.306;11.350;2023-09-30T09:48:05;1.30;;;1.30;;
595;SDS011;19946;49.306;11.350;2023-09-30T09:51:07;1.43;;;1.43;;
595;SDS011;19946;49.306;11.350;2023-09-30T09:54:09;1.90;;;1.90;;
595;SDS011;19946;49.306;11.350;2023-09-30T09:57:11;1.80;;;1.80;;
595;SDS011;19946;49.306;11.350;2023-09-30T10:00:13;1.70;;;1.70;;
595;SDS011;19946;49.306;11.350;2023-09-30T10:03:19;2.00;;;2.00;;
595;SDS011;19946;49.306;11.350;2023-09-30T10:06:19;2.30;;;2.30;;
595;SDS011;19946;49.306;11.350;2023-09-30T10:09:22;2.00;;;2.00;;
595;SDS011;19946;49.306;11.350;2023-09-30T10:12:24;2.10;;;2.10;;
595;SDS011;19946;49.306;11.350;2023-09-30T10:18:26;2.70;;;2.70;;
595;SDS011;19946;49.306;11.350;2023-09-30T10:21:27;2.50;;;2.50;;
595;SDS011;19946;49.306;11.350;2023-09-30T10:24:28;2.50;;;2.50;;
595;SDS011;19946;49.306;11.350;2023-09-30T10:27:30;2.60;;;2.60;;
595;SDS011;19946;49.306;11.350;2023-09-30T10:30:36;2.63;;;2.63;;
595;SDS011;19946;49.306;11.350;2023-09-30T10:34:12;2.70;;;2.70;;
595;SDS011;19946;49.306;11.350;2023-09-30T10:37:19;2.20;;;2.20;;
595;SDS011;19946;49.306;11.350;2023-09-30T10:40:26;2.67;;;2.67;;
595;SDS011;19946;49.306;11.350;2023-09-30T10:46:38;2.20;;;2.20;;
595;SDS011;19946;49.306;11.350;2023-09-30T10:49:40;2.20;;;2.20;;
595;SDS011;19946;49.306;11.350;2023-09-30T10:52:40;2.00;;;2.00;;
595;SDS011;19946;49.306;11.350;2023-09-30T10:55:41;2.10;;;2.10;;
595;SDS011;19946;49.306;11.350;2023-09-30T10:58:43;2.30;;;2.30;;
595;SDS011;19946;49.306;11.350;2023-09-30T11:01:47;2.20;;;2.20;;
595;SDS011;19946;49.306;11.350;2023-09-30T11:04:48;2.00;;;2.00;;
595;SDS011;19946;49.306;11.350;2023-09-30T11:07:49;2.20;;;2.20;;
595;SDS011;19946;49.306;11.350;2023-09-30T11:10:51;2.40;;;2.40;;
595;SDS011;19946;49.306;11.350;2023-09-30T11:13:53;2.40;;;2.40;;
595;SDS011;19946;49.306;11.350;2023-09-30T11:16:54;2.37;;;2.37;;
595;SDS011;19946;49.306;11.350;2023-09-30T11:19:56;2.00;;;2.00;;
595;SDS011;19946;49.306;11.350;2023-09-30T11:22:56;2.10;;;2.10;;
595;SDS011;19946;49.306;11.350;2023-09-30T11:25:57;2.20;;;2.20;;
595;SDS011;19946;49.306;11.350;2023-09-30T11:29:04;2.10;;;2.10;;
595;SDS011;19946;49.306;11.350;2023-09-30T11:32:13;2.40;;;2.40;;
595;SDS011;19946;49.306;11.350;2023-09-30T11:35:23;2.20;;;2.20;;
595;SDS011;19946;49.306;11.350;2023-09-30T11:38:24;2.20;;;2.20;;
595;SDS011;19946;49.306;11.350;2023-09-30T11:41:32;2.10;;;2.10;;
595;SDS011;19946;49.306;11.350;2023-09-30T11:44:44;1.90;;;1.90;;
595;SDS011;19946;49.306;11.350;2023-09-30T11:47:46;2.10;;;2.10;;
595;SDS011;19946;49.306;11.350;2023-09-30T11:50:48;1.90;;;1.90;;
595;SDS011;19946;49.306;11.350;2023-09-30T11:53:50;2.20;;;2.20;;
595;SDS011;19946;49.306;11.350;2023-09-30T11:56:50;2.17;;;2.17;;
595;SDS011;19946;49.306;11.350;2023-09-30T11:59:50;1.97;;;1.97;;
595;SDS011;19946;49.306;11.350;2023-09-30T12:02:52;1.90;;;1.90;;
595;SDS011;19946;49.306;11.350;2023-09-30T12:05:54;2.00;;;2.00;;
595;SDS011;19946;49.306;11.350;2023-09-30T12:08:55;1.83;;;1.83;;
595;SDS011;19946;49.306;11.350;2023-09-30T12:11:56;1.70;;;1.70;;
595;SDS011;19946;49.306;11.350;2023-09-30T12:14:57;1.90;;;1.90;;
595;SDS011;19946;49.306;11.350;2023-09-30T12:17:58;1.40;;;1.40;;
595;SDS011;19946;49.306;11.350;2023-09-30T12:20:58;1.40;;;1.40;;
595;SDS011;19946;49.306;11.350;2023-09-30T12:23:59;1.40;;;1.40;;
595;SDS011;19946;49.306;11.350;2023-09-30T12:27:03;2.00;;;2.00;;
595;SDS011;19946;49.306;11.350;2023-09-30T12:30:04;1.70;;;1.70;;
595;SDS011;19946;49.306;11.350;2023-09-30T12:33:07;1.60;;;1.60;;
595;SDS011;19946;49.306;11.350;2023-09-30T12:36:07;1.60;;;1.60;;
595;SDS011;19946;49.306;11.350;2023-09-30T12:39:08;1.70;;;1.70;;
595;SDS011;19946;49.306;11.350;2023-09-30T12:42:12;1.27;;;1.27;;
595;SDS011;19946;49.306;11.350;2023-09-30T12:45:14;1.37;;;1.37;;
595;SDS011;19946;49.306;11.350;2023-09-30T12:48:14;1.40;;;1.40;;
595;SDS011;19946;49.306;11.350;2023-09-30T12:51:15;1.50;;;1.50;;
595;SDS011;19946;49.306;11.350;2023-09-30T12:54:15;1.30;;;1.30;;
595;SDS011;19946;49.306;11.350;2023-09-30T12:57:18;1.13;;;1.13;;
595;SDS011;19946;49.306;11.350;2023-09-30T13:00:19;1.20;;;1.20;;
595;SDS011;19946;49.306;11.350;2023-09-30T13:03:22;1.57;;;1.57;;
595;SDS011;19946;49.306;11.350;2023-09-30T13:06:22;1.20;;;1.20;;
595;SDS011;19946;49.306;11.350;2023-09-30T13:09:23;1.40;;;1.40;;
595;SDS011;19946;49.306;11.350;2023-09-30T13:12:23;1.00;;;1.00;;
595;SDS011;19946;49.306;11.350;2023-09-30T13:15:24;1.37;;;1.37;;
595;SDS011;19946;49.306;11.350;2023-09-30T13:18:26;1.10;;;1.10;;
595;SDS011;19946;49.306;11.350;2023-09-30T13:21:26;0.90;;;0.90;;
595;SDS011;19946;49.306;11.350;2023-09-30T13:24:26;1.00;;;1.00;;
595;SDS011;19946;49.306;11.350;2023-09-30T13:27:27;1.00;;;1.00;;
595;SDS011;19946;49.306;11.350;2023-09-30T13:30:28;1.10;;;1.10;;
595;SDS011;19946;49.306;11.350;2023-09-30T13:33:28;0.90;;;0.90;;
595;SDS011;19946;49.306;11.350;2023-09-30T13:36:29;0.80;;;0.80;;
595;SDS011;19946;49.306;11.350;2023-09-30T13:39:30;0.80;;;0.80;;
595;SDS011;19946;49.306;11.350;2023-09-30T13:42:31;1.20;;;1.20;;
595;SDS011;19946;49.306;11.350;2023-09-30T13:45:31;0.90;;;0.90;;
595;SDS011;19946;49.306;11.350;2023-09-30T13:48:32;0.90;;;0.90;;
595;SDS011;19946;49.306;11.350;2023-09-30T13:51:33;1.00;;;1.00;;
595;SDS011;19946;49.306;11.350;2023-09-30T13:54:34;1.00;;;1.00;;
595;SDS011;19946;49.306;11.350;2023-09-30T13:57:34;0.80;;;0.80;;
595;SDS011;19946;49.306;11.350;2023-09-30T14:00:35;0.80;;;0.80;;
595;SDS011;19946;49.306;11.350;2023-09-30T14:03:35;0.90;;;0.90;;
595;SDS011;19946;49.306;11.350;2023-09-30T14:06:36;0.97;;;0.97;;
595;SDS011;19946;49.306;11.350;2023-09-30T14:09:37;0.90;;;0.90;;
595;SDS011;19946;49.306;11.350;2023-09-30T14:12:37;0.80;;;0.80;;
595;SDS011;19946;49.306;11.350;2023-09-30T14:15:39;1.40;;;1.40;;
595;SDS011;19946;49.306;11.350;2023-09-30T14:18:40;0.80;;;0.80;;
595;SDS011;19946;49.306;11.350;2023-09-30T14:21:40;0.80;;;0.80;;
595;SDS011;19946;49.306;11.350;2023-09-30T14:24:41;0.70;;;0.70;;
595;SDS011;19946;49.306;11.350;2023-09-30T14:27:41;0.97;;;0.97;;
595;SDS011;19946;49.306;11.350;2023-09-30T14:30:42;0.70;;;0.70;;
595;SDS011;19946;49.306;11.350;2023-09-30T14:33:42;0.70;;;0.70;;
595;SDS011;19946;49.306;11.350;2023-09-30T14:36:42;0.70;;;0.70;;
595;SDS011;19946;49.306;11.350;2023-09-30T14:39:43;0.80;;;0.80;;
595;SDS011;19946;49.306;11.350;2023-09-30T14:42:43;0.80;;;0.80;;
595;SDS011;19946;49.306;11.350;2023-09-30T14:45:43;0.70;;;0.70;;
595;SDS011;19946;49.306;11.350;2023-09-30T14:48:43;0.80;;;0.80;;
595;SDS011;19946;49.306;11.350;2023-09-30T14:51:44;0.90;;;0.90;;
595;SDS011;19946;49.306;11.350;2023-09-30T14:54:48;0.80;;;0.80;;
595;SDS011;19946;49.306;11.350;2023-09-30T14:57:48;0.80;;;0.80;;
595;SDS011;19946;49.306;11.350;2023-09-30T15:00:48;0.70;;;0.70;;
595;SDS011;19946;49.306;11.350;2023-09-30T15:03:48;0.70;;;0.70;;
595;SDS011;19946;49.306;11.350;2023-09-30T15:06:49;0.70;;;0.70;;
595;SDS011;19946;49.306;11.350;2023-09-30T15:09:49;0.80;;;0.80;;
595;SDS011;19946;49.306;11.350;2023-09-30T15:12:51;0.70;;;0.70;;
595;SDS011;19946;49.306;11.350;2023-09-30T15:15:51;0.73;;;0.73;;
595;SDS011;19946;49.306;11.350;2023-09-30T15:18:52;0.80;;;0.80;;
595;SDS011;19946;49.306;11.350;2023-09-30T15:21:52;0.70;;;0.70;;
595;SDS011;19946;49.306;11.350;2023-09-30T15:24:52;0.80;;;0.80;;
595;SDS011;19946;49.306;11.350;2023-09-30T15:27:53;0.80;;;0.80;;
595;SDS011;19946;49.306;11.350;2023-09-30T15:30:54;0.70;;;0.70;;
595;SDS011;19946;49.306;11.350;2023-09-30T15:33:56;0.60;;;0.60;;
595;SDS011;19946;49.306;11.350;2023-09-30T15:36:56;0.60;;;0.60;;
595;SDS011;19946;49.306;11.350;2023-09-30T15:39:57;0.70;;;0.70;;
595;SDS011;19946;49.306;11.350;2023-09-30T15:42:58;0.70;;;0.70;;
595;SDS011;19946;49.306;11.350;2023-09-30T15:45:59;0.50;;;0.50;;
595;SDS011;19946;49.306;11.350;2023-09-30T15:49:00;0.50;;;0.50;;
595;SDS011;19946;49.306;11.350;2023-09-30T15:52:03;0.60;;;0.60;;
595;SDS011;19946;49.306;11.350;2023-09-30T15:55:04;0.50;;;0.50;;
595;SDS011;19946;49.306;11.350;2023-09-30T15:58:05;0.50;;;0.50;;
595;SDS011;19946;49.306;11.350;2023-09-30T16:01:06;0.50;;;0.50;;
595;SDS011;19946;49.306;11.350;2023-09-30T16:04:10;0.60;;;0.60;;
595;SDS011;19946;49.306;11.350;2023-09-30T16:07:12;0.40;;;0.40;;
595;SDS011;19946;49.306;11.350;2023-09-30T16:10:12;0.40;;;0.40;;
595;SDS011;19946;49.306;11.350;2023-09-30T16:13:12;0.40;;;0.40;;
595;SDS011;19946;49.306;11.350;2023-09-30T16:16:13;0.40;;;0.40;;
595;SDS011;19946;49.306;11.350;2023-09-30T16:19:13;0.40;;;0.40;;
595;SDS011;19946;49.306;11.350;2023-09-30T16:22:13;0.40;;;0.40;;
595;SDS011;19946;49.306;11.350;2023-09-30T16:25:14;0.57;;;0.57;;
595;SDS011;19946;49.306;11.350;2023-09-30T16:28:14;0.30;;;0.30;;
595;SDS011;19946;49.306;11.350;2023-09-30T16:31:15;0.30;;;0.30;;
595;SDS011;19946;49.306;11.350;2023-09-30T16:34:16;0.30;;;0.30;;
595;SDS011;19946;49.306;11.350;2023-09-30T16:37:16;0.30;;;0.30;;
595;SDS011;19946;49.306;11.350;2023-09-30T16:40:17;0.30;;;0.30;;
595;SDS011;19946;49.306;11.350;2023-09-30T16:43:18;0.30;;;0.30;;
595;SDS011;19946;49.306;11.350;2023-09-30T16:46:18;0.30;;;0.30;;
595;SDS011;19946;49.306;11.350;2023-09-30T16:49:18;0.23;;;0.23;;
595;SDS011;19946;49.306;11.350;2023-09-30T16:52:22;0.30;;;0.30;;
595;SDS011;19946;49.306;11.350;2023-09-30T16:55:24;0.20;;;0.20;;
595;SDS011;19946;49.306;11.350;2023-09-30T16:58:25;0.10;;;0.10;;
595;SDS011;19946;49.306;11.350;2023-09-30T17:01:25;0.10;;;0.10;;
595;SDS011;19946;49.306;11.350;2023-09-30T17:04:25;0.10;;;0.10;;
595;SDS011;19946;49.306;11.350;2023-09-30T17:07:26;0.00;;;0.00;;
595;SDS011;19946;49.306;11.350;2023-09-30T17:10:26;0.10;;;0.10;;
595;SDS011;19946;49.306;11.350;2023-09-30T17:13:27;0.10;;;0.10;;
595;SDS011;19946;49.306;11.350;2023-09-30T17:16:28;0.10;;;0.10;;
595;SDS011;19946;49.306;11.350;2023-09-30T17:19:28;0.10;;;0.10;;
595;SDS011;19946;49.306;11.350;2023-09-30T17:22:28;0.10;;;0.10;;
595;SDS011;19946;49.306;11.350;2023-09-30T17:25:29;0.10;;;0.10;;
595;SDS011;19946;49.306;11.350;2023-09-30T17:28:29;0.10;;;0.10;;
595;SDS011;19946;49.306;11.350;2023-09-30T17:31:30;0.10;;;0.10;;
595;SDS011;19946;49.306;11.350;2023-09-30T17:34:34;0.10;;;0.10;;
595;SDS011;19946;49.306;11.350;2023-09-30T17:37:35;0.10;;;0.10;;
595;SDS011;19946;49.306;11.350;2023-09-30T17:40:37;0.00;;;0.00;;
595;SDS011;19946;49.306;11.350;2023-09-30T17:43:39;0.10;;;0.10;;
595;SDS011;19946;49.306;11.350;2023-09-30T17:46:39;0.10;;;0.10;;
595;SDS011;19946;49.306;11.350;2023-09-30T17:49:40;0.07;;;0.07;;
595;SDS011;19946;49.306;11.350;2023-09-30T17:52:40;0.00;;;0.00;;
595;SDS011;19946;49.306;11.350;2023-09-30T17:55:40;0.10;;;0.10;;
595;SDS011;19946;49.306;11.350;2023-09-30T17:58:41;0.10;;;0.10;;
595;SDS011;19946;49.306;11.350;2023-09-30T18:01:41;0.10;;;0.10;;
595;SDS011;19946;49.306;11.350;2023-09-30T18:04:42;0.00;;;0.00;;
595;SDS011;19946;49.306;11.350;2023-09-30T18:07:43;0.10;;;0.10;;
595;SDS011;19946;49.306;11.350;2023-09-30T18:10:44;0.10;;;0.10;;
595;SDS011;19946;49.306;11.350;2023-09-30T18:13:44;0.10;;;0.10;;
595;SDS011;19946;49.306;11.350;2023-09-30T18:16:44;0.10;;;0.10;;
595;SDS011;19946;49.306;11.350;2023-09-30T18:19:45;0.00;;;0.00;;
595;SDS011;19946;49.306;11.350;2023-09-30T18:22:46;0.00;;;0.00;;
595;SDS011;19946;49.306;11.350;2023-09-30T18:25:47;0.00;;;0.00;;
595;SDS011;19946;49.306;11.350;2023-09-30T18:28:47;0.00;;;0.00;;
595;SDS011;19946;49.306;11.350;2023-09-30T18:31:48;0.10;;;0.10;;
595;SDS011;19946;49.306;11.350;2023-09-30T18:34:49;0.10;;;0.10;;